Weather reports worldwide

Advertisment
Drumnadrochit, United Kingdom (99132): temperature & dewpoint: 10.12.2017 05:00:00 - 16.12.2017 05:00:00 (GMT)Drumnadrochit, United Kingdom (99132): precipitation: 10.12.2017 05:00:00 - 16.12.2017 05:00:00 (GMT)
Date & Time tt [°C] td [°C] rr [mm]
16.12.2017 05:00:00 - - 0,0
16.12.2017 04:00:00 -1,5 -2,0 0,0
16.12.2017 03:00:00 -1,3 -2,6 0,0
16.12.2017 02:00:00 1,1 -2,0 0,0
16.12.2017 01:00:00 -0,2 -1,3 0,0
16.12.2017 00:00:00 0,1 -2,2 0,0
15.12.2017 23:00:00 0,6 -0,8 0,0
15.12.2017 22:00:00 1,1 1,0 0,0
15.12.2017 21:00:00 -1,8 -2,0 0,0
15.12.2017 20:00:00 -2,3 -3,7 0,0
15.12.2017 19:00:00 0,4 -1,2 0,2
15.12.2017 18:00:00 - - 0,2
15.12.2017 17:00:00 2,8 0,1 0,4
15.12.2017 16:00:00 2,5 0,4 0,8
15.12.2017 15:00:00 3,4 0,7 0,4
15.12.2017 14:00:00 3,5 0,6 0,6
15.12.2017 13:00:00 2,1 1,0 0,2
15.12.2017 12:00:00 1,8 0,6 0,2
15.12.2017 11:00:00 1,1 -0,6 0,0
15.12.2017 10:00:00 1,3 -0,7 0,0
15.12.2017 09:00:00 2,8 -0,4 0,2
15.12.2017 08:00:00 3,4 -0,4 0,4
15.12.2017 07:00:00 3,2 0,1 0,8
15.12.2017 06:00:00 3,4 1,0 0,8
15.12.2017 05:00:00 3,2 1,7 0,0
15.12.2017 04:00:00 3,3 1,1 0,0
15.12.2017 03:00:00 3,6 2,2 0,0
15.12.2017 02:00:00 2,6 1,5 0,0
15.12.2017 01:00:00 0,9 0,8 0,0
15.12.2017 00:00:00 0,5 0,3 0,0
14.12.2017 23:00:00 0,9 0,6 0,0
14.12.2017 22:00:00 0,7 0,4 0,0
14.12.2017 21:00:00 0,7 0,5 0,0
14.12.2017 20:00:00 0,9 0,9 0,0
14.12.2017 19:00:00 0,1 0,1 0,0
14.12.2017 18:00:00 0,1 0,1 0,0
14.12.2017 17:00:00 0,1 0,0 0,0
14.12.2017 16:00:00 -0,3 -0,5 0,0
14.12.2017 15:00:00 0,3 -0,1 0,0
14.12.2017 14:00:00 1,3 -0,6 0,0
14.12.2017 13:00:00 -0,4 -1,0 0,0
14.12.2017 12:00:00 -1,1 -1,8 0,0
14.12.2017 11:00:00 -4,4 -4,8 0,0
14.12.2017 10:00:00 -4,0 -4,3 0,0
14.12.2017 09:00:00 -2,1 -2,4 0,0
14.12.2017 08:00:00 -1,3 -1,3 0,0
14.12.2017 07:00:00 -1,4 -1,4 0,0
14.12.2017 06:00:00 -1,3 -1,5 0,0
14.12.2017 05:00:00 -0,2 -0,3 0,0
14.12.2017 04:00:00 0,0 0,0 0,0
14.12.2017 03:00:00 0,0 0,0 0,0
14.12.2017 02:00:00 0,0 -0,2 0,0
14.12.2017 01:00:00 0,1 -0,1 0,0
14.12.2017 00:00:00 0,5 0,0 0,0
13.12.2017 23:00:00 1,4 -0,2 0,0
13.12.2017 22:00:00 -1,0 -3,0 0,0
13.12.2017 21:00:00 -0,7 -1,3 0,0
13.12.2017 20:00:00 -0,8 -1,7 0,0
13.12.2017 19:00:00 0,0 -1,7 0,0
13.12.2017 18:00:00 -0,4 -0,8 0,0
13.12.2017 17:00:00 -0,6 -1,3 0,0
13.12.2017 16:00:00 1,2 -0,6 0,0
13.12.2017 15:00:00 0,6 -1,0 0,0
13.12.2017 14:00:00 1,3 -0,5 0,0
13.12.2017 13:00:00 1,5 0,7 0,0
13.12.2017 12:00:00 2,4 0,4 0,0
13.12.2017 11:00:00 2,6 1,2 0,0
13.12.2017 10:00:00 1,1 0,8 0,0
13.12.2017 09:00:00 1,5 1,0 0,0
13.12.2017 08:00:00 1,7 1,1 0,0
13.12.2017 07:00:00 2,7 1,5 0,0
13.12.2017 06:00:00 2,8 2,0 0,0
13.12.2017 05:00:00 0,5 0,4 0,0
13.12.2017 04:00:00 -0,3 -0,9 0,0
13.12.2017 03:00:00 3,8 0,4 0,0
13.12.2017 02:00:00 -0,1 -1,2 0,0
13.12.2017 01:00:00 -2,6 -2,8 0,0
13.12.2017 00:00:00 -0,9 -0,9 0,0
12.12.2017 23:00:00 -0,8 -1,0 0,0
12.12.2017 22:00:00 0,4 0,1 0,0
12.12.2017 21:00:00 3,0 1,7 0,0
12.12.2017 20:00:00 1,0 0,7 0,0
12.12.2017 19:00:00 1,8 1,8 0,0
12.12.2017 18:00:00 -0,1 -0,1 0,0
12.12.2017 17:00:00 -0,1 -0,1 0,0
12.12.2017 16:00:00 -0,7 -0,7 0,0
12.12.2017 15:00:00 -1,2 -1,2 0,0
12.12.2017 14:00:00 -1,1 -1,1 0,0
12.12.2017 13:00:00 -2,8 -3,0 0,0
12.12.2017 12:00:00 -3,8 -3,9 0,0
12.12.2017 11:00:00 -5,6 -5,9 0,0
12.12.2017 10:00:00 -6,7 -7,0 0,0
12.12.2017 09:00:00 -8,2 -8,8 0,0
12.12.2017 08:00:00 -8,0 -8,7 0,0
12.12.2017 07:00:00 -7,8 -8,7 0,0
12.12.2017 06:00:00 -7,9 -8,3 0,0
12.12.2017 05:00:00 -8,7 -9,6 0,0
12.12.2017 04:00:00 -8,2 -9,2 0,0
12.12.2017 03:00:00 -5,9 -6,5 0,0
12.12.2017 02:00:00 -3,9 -3,9 0,0
12.12.2017 01:00:00 -6,6 -7,0 0,0
12.12.2017 00:00:00 -6,5 -6,9 0,0
11.12.2017 23:00:00 -6,2 -7,1 0,0
11.12.2017 22:00:00 -3,8 -4,5 0,0
11.12.2017 21:00:00 -1,2 -1,2 0,0
11.12.2017 20:00:00 -1,0 -1,0 0,0
11.12.2017 19:00:00 -1,4 -1,4 0,0
11.12.2017 18:00:00 -3,8 -4,0 0,0
11.12.2017 17:00:00 -3,1 -3,2 0,0
11.12.2017 16:00:00 -2,2 -2,5 0,0
11.12.2017 15:00:00 1,0 -0,6 0,0
11.12.2017 14:00:00 1,6 0,7 0,0
11.12.2017 13:00:00 1,5 0,6 0,0
11.12.2017 12:00:00 -0,2 -0,2 0,0
11.12.2017 11:00:00 -0,6 -0,6 0,0
11.12.2017 10:00:00 -0,9 -0,9 0,0
11.12.2017 09:00:00 -2,8 -3,0 0,0
11.12.2017 08:00:00 -3,0 -3,1 0,0
11.12.2017 07:00:00 -3,5 -3,7 0,0
11.12.2017 06:00:00 -4,3 -4,4 0,0
11.12.2017 05:00:00 -5,6 -6,1 0,0
11.12.2017 04:00:00 -5,9 -6,1 0,0
11.12.2017 03:00:00 -8,4 -9,5 0,0
11.12.2017 02:00:00 -7,1 -7,8 0,0
11.12.2017 01:00:00 -5,2 -5,7 0,0
11.12.2017 00:00:00 -4,1 -4,3 0,0
10.12.2017 23:00:00 -4,9 -5,1 0,0
10.12.2017 22:00:00 -6,1 -6,6 0,0
10.12.2017 21:00:00 -6,6 -6,9 0,0
10.12.2017 20:00:00 -8,7 -9,3 0,0
10.12.2017 19:00:00 -11,4 -12,7 0,0
10.12.2017 18:00:00 -10,7 -11,5 0,0
10.12.2017 17:00:00 -10,9 -12,0 0,0
10.12.2017 16:00:00 -9,9 -11,0 0,0
10.12.2017 15:00:00 -8,9 -10,2 0,0
10.12.2017 14:00:00 -7,1 -8,0 0,0
10.12.2017 13:00:00 -7,1 -8,2 0,0
10.12.2017 12:00:00 -8,5 -9,1 0,0
10.12.2017 11:00:00 -11,2 -12,6 0,0
10.12.2017 10:00:00 -8,8 -9,4 0,0
10.12.2017 09:00:00 -9,5 -10,6 0,0
10.12.2017 08:00:00 -9,8 -11,2 0,0
10.12.2017 07:00:00 -8,3 -8,8 0,0
10.12.2017 06:00:00 -8,5 -9,1 0,0
10.12.2017 05:00:00 -8,2 -9,4 0,0

tt = temperature
td = dewpoint
rr = precipitation

Next stations